createdAt,value
2023-03-17T00:00:25.549Z,79.20
2023-03-17T00:03:26.220Z,79.40
2023-03-17T00:06:21.437Z,79.80
2023-03-17T00:09:17.038Z,80.00
2023-03-17T00:12:06.056Z,79.80
2023-03-17T00:14:52.260Z,79.60
2023-03-17T00:17:38.720Z,80.50
2023-03-17T00:20:24.552Z,79.60
2023-03-17T00:23:22.255Z,79.30
2023-03-17T00:26:09.400Z,79.70
2023-03-17T00:28:56.890Z,79.60
2023-03-17T00:31:45.716Z,79.80
2023-03-17T00:34:32.217Z,80.80
2023-03-17T00:37:18.269Z,81.20
2023-03-17T00:40:10.337Z,81.10
2023-03-17T00:42:57.877Z,80.90
2023-03-17T00:45:44.468Z,80.90
2023-03-17T00:48:30.944Z,81.00
2023-03-17T00:51:16.832Z,81.20
2023-03-17T00:54:02.943Z,81.50
2023-03-17T00:56:50.901Z,81.40
2023-03-17T00:59:42.315Z,81.90
2023-03-17T01:02:31.001Z,81.90
2023-03-17T01:05:18.773Z,81.80
2023-03-17T01:08:05.413Z,82.00
2023-03-17T01:10:51.913Z,82.40
2023-03-17T01:13:40.423Z,82.20
2023-03-17T01:16:26.906Z,83.00
2023-03-17T01:19:13.905Z,83.20
2023-03-17T01:22:00.138Z,83.70
2023-03-17T01:24:47.810Z,83.20
2023-03-17T01:27:37.820Z,83.70
2023-03-17T01:30:28.913Z,83.20
2023-03-17T01:33:15.694Z,83.40
2023-03-17T01:36:02.338Z,82.90
2023-03-17T01:38:50.751Z,83.00
2023-03-17T01:41:40.024Z,83.00
2023-03-17T01:44:26.442Z,83.60
2023-03-17T01:47:13.035Z,83.50
2023-03-17T01:50:06.258Z,84.00
2023-03-17T01:52:52.643Z,84.80
2023-03-17T01:55:39.850Z,85.10
2023-03-17T01:58:26.670Z,85.40
2023-03-17T02:01:14.145Z,85.10
2023-03-17T02:04:01.187Z,85.00
2023-03-17T02:06:57.917Z,85.70
2023-03-17T02:09:46.125Z,85.80
2023-03-17T02:12:35.027Z,85.40
2023-03-17T02:15:21.815Z,85.30
2023-03-17T02:18:09.147Z,85.50
2023-03-17T02:21:28.239Z,85.70
2023-03-17T02:24:26.573Z,85.60
2023-03-17T02:27:21.503Z,86.30
2023-03-17T02:30:14.354Z,86.50
2023-03-17T02:33:02.640Z,87.30
2023-03-17T02:35:48.941Z,87.30
2023-03-17T02:38:36.016Z,87.70
2023-03-17T02:41:21.958Z,87.60
2023-03-17T02:44:08.648Z,87.30
2023-03-17T02:46:55.125Z,86.50
2023-03-17T02:49:42.996Z,86.30
2023-03-17T02:52:28.760Z,86.80
2023-03-17T02:55:14.874Z,87.90
2023-03-17T02:58:03.090Z,88.90
2023-03-17T03:00:49.760Z,89.00
2023-03-17T03:03:37.149Z,89.00
2023-03-17T03:06:23.943Z,89.20
2023-03-17T03:09:11.788Z,89.80
2023-03-17T03:11:57.889Z,89.60
2023-03-17T03:14:43.840Z,90.10
2023-03-17T03:17:29.749Z,90.00
2023-03-17T03:20:16.269Z,90.00
2023-03-17T03:23:02.540Z,89.70
2023-03-17T03:25:48.535Z,89.50
2023-03-17T03:28:34.747Z,89.30
2023-03-17T03:31:21.264Z,89.20
2023-03-17T03:34:07.419Z,89.50
2023-03-17T03:36:53.921Z,88.90
2023-03-17T03:39:39.934Z,89.70
2023-03-17T03:42:26.570Z,89.60
2023-03-17T03:45:12.891Z,90.00
2023-03-17T03:47:59.124Z,90.00
2023-03-17T03:50:45.718Z,90.00
2023-03-17T03:53:31.680Z,89.80
2023-03-17T03:56:17.671Z,89.90
2023-03-17T03:59:03.915Z,90.00
2023-03-17T04:01:50.212Z,90.20
2023-03-17T04:04:36.260Z,90.40
2023-03-17T04:07:23.009Z,90.40
2023-03-17T04:10:10.964Z,90.60
2023-03-17T04:12:57.445Z,90.40
2023-03-17T04:15:43.392Z,90.30
2023-03-17T04:18:30.898Z,90.10
2023-03-17T04:21:18.974Z,90.00
2023-03-17T04:24:05.736Z,90.10
2023-03-17T04:26:51.982Z,89.80
2023-03-17T04:29:38.044Z,90.00
2023-03-17T04:32:26.031Z,89.80
2023-03-17T04:35:18.080Z,89.60
2023-03-17T04:38:04.170Z,89.70
2023-03-17T04:40:51.814Z,89.70
2023-03-17T04:43:37.880Z,89.80
2023-03-17T04:46:23.873Z,89.90
2023-03-17T04:49:09.966Z,90.10
2023-03-17T04:51:56.118Z,90.10
2023-03-17T04:54:42.927Z,90.20
2023-03-17T04:57:28.940Z,90.20
2023-03-17T05:00:15.627Z,90.10
2023-03-17T05:03:01.515Z,90.10
2023-03-17T05:05:47.539Z,90.00
2023-03-17T05:08:34.282Z,90.10
2023-03-17T05:11:20.408Z,90.20
2023-03-17T05:14:06.664Z,89.90
2023-03-17T05:16:53.157Z,89.70
2023-03-17T05:19:39.746Z,90.00
2023-03-17T05:22:26.163Z,89.60
2023-03-17T05:25:12.186Z,89.90
2023-03-17T05:27:58.688Z,90.00
2023-03-17T05:30:45.935Z,90.00
2023-03-17T05:33:31.942Z,89.70
2023-03-17T05:36:18.164Z,89.50
2023-03-17T05:39:05.151Z,89.10
2023-03-17T05:41:51.566Z,89.00
2023-03-17T05:44:38.045Z,89.00
2023-03-17T05:47:24.455Z,89.70
2023-03-17T05:50:11.336Z,89.30
2023-03-17T05:52:57.619Z,88.70
2023-03-17T05:55:43.740Z,88.30
2023-03-17T05:58:29.851Z,88.60
2023-03-17T06:01:15.764Z,88.80
2023-03-17T06:04:02.443Z,88.40
2023-03-17T06:06:48.786Z,88.40
2023-03-17T06:09:34.724Z,88.40
2023-03-17T06:12:20.979Z,88.00
2023-03-17T06:15:09.707Z,87.30
2023-03-17T06:17:56.185Z,86.90
2023-03-17T06:20:42.189Z,87.10
2023-03-17T06:23:28.016Z,86.80
2023-03-17T06:26:13.995Z,86.60
2023-03-17T06:28:59.939Z,86.50
2023-03-17T06:31:50.596Z,86.30
2023-03-17T06:34:36.665Z,86.80
2023-03-17T06:37:23.471Z,86.60
2023-03-17T06:40:11.310Z,86.80
2023-03-17T06:42:57.808Z,87.90
2023-03-17T06:45:43.939Z,87.10
2023-03-17T06:48:30.145Z,86.70
2023-03-17T06:51:15.852Z,86.60
2023-03-17T06:54:01.905Z,86.20
2023-03-17T06:56:48.107Z,86.20
2023-03-17T06:59:34.471Z,85.40
2023-03-17T07:02:20.461Z,84.70
2023-03-17T07:05:08.093Z,84.60
2023-03-17T07:07:54.315Z,83.80
2023-03-17T07:10:43.670Z,83.10
2023-03-17T07:13:31.966Z,82.80
2023-03-17T07:16:19.600Z,82.60
2023-03-17T07:19:07.267Z,82.60
2023-03-17T07:21:55.844Z,82.20
2023-03-17T07:24:43.233Z,81.30
2023-03-17T07:27:29.396Z,80.70
2023-03-17T07:30:19.056Z,80.90
2023-03-17T07:33:05.609Z,80.50
2023-03-17T07:35:52.413Z,80.20
2023-03-17T07:38:38.332Z,80.40
2023-03-17T07:41:24.323Z,78.90
2023-03-17T07:44:11.476Z,78.50
2023-03-17T07:46:58.056Z,76.80
2023-03-17T07:49:44.520Z,74.70
2023-03-17T07:52:30.757Z,74.00
2023-03-17T07:55:17.907Z,72.90
2023-03-17T07:58:04.489Z,71.20
2023-03-17T08:00:51.792Z,69.20
2023-03-17T08:03:41.116Z,67.50
2023-03-17T08:06:28.081Z,68.10
2023-03-17T08:09:15.557Z,67.40
2023-03-17T08:12:01.882Z,68.10
2023-03-17T08:14:48.438Z,67.60
2023-03-17T08:17:36.524Z,66.20
2023-03-17T08:20:22.811Z,65.70
2023-03-17T08:23:08.778Z,63.50
2023-03-17T08:25:59.227Z,64.90
2023-03-17T08:28:45.398Z,63.90
2023-03-17T08:31:33.838Z,63.00
2023-03-17T08:34:20.069Z,62.40
2023-03-17T08:37:08.848Z,61.70
2023-03-17T08:39:57.591Z,63.10
2023-03-17T08:42:44.603Z,63.10
2023-03-17T08:45:31.160Z,62.10
2023-03-17T08:48:17.808Z,62.10
2023-03-17T08:51:05.516Z,63.10
2023-03-17T08:53:53.213Z,60.30
2023-03-17T08:56:40.216Z,61.10
2023-03-17T08:59:27.019Z,59.50
2023-03-17T09:02:14.516Z,58.20
2023-03-17T09:05:01.288Z,57.50
2023-03-17T09:07:49.023Z,58.70
2023-03-17T09:10:36.242Z,57.60
2023-03-17T09:13:22.765Z,56.60
2023-03-17T09:16:10.013Z,56.70
2023-03-17T09:18:56.116Z,54.40
2023-03-17T09:21:42.730Z,54.10
2023-03-17T09:24:29.445Z,52.20
2023-03-17T09:27:15.599Z,52.50
2023-03-17T09:30:01.713Z,52.20
2023-03-17T09:32:48.761Z,51.20
2023-03-17T09:35:34.854Z,50.70
2023-03-17T09:38:22.262Z,51.20
2023-03-17T09:41:20.223Z,51.00
2023-03-17T09:44:22.005Z,50.60
2023-03-17T09:47:46.158Z,50.50
2023-03-17T09:51:01.210Z,50.70
2023-03-17T09:54:02.396Z,50.30
2023-03-17T09:56:52.137Z,49.70
2023-03-17T09:59:42.180Z,50.20
2023-03-17T10:02:31.598Z,50.10
2023-03-17T10:05:19.758Z,49.90
2023-03-17T10:08:30.584Z,49.20
2023-03-17T10:11:32.693Z,48.90
2023-03-17T10:14:33.669Z,49.20
2023-03-17T10:17:39.962Z,48.10
2023-03-17T10:20:29.654Z,47.40
2023-03-17T10:23:19.440Z,47.90
2023-03-17T10:26:15.140Z,47.00
2023-03-17T10:29:04.338Z,47.10
2023-03-17T10:31:52.294Z,45.60
2023-03-17T10:34:39.660Z,45.30
2023-03-17T10:37:27.296Z,44.90
2023-03-17T10:40:39.717Z,45.70
2023-03-17T10:43:30.939Z,45.50
2023-03-17T10:46:24.434Z,44.60
2023-03-17T10:49:18.453Z,45.60
2023-03-17T10:52:17.080Z,44.90
2023-03-17T10:55:06.121Z,44.10
2023-03-17T10:58:03.533Z,44.30
2023-03-17T11:01:08.221Z,43.50
2023-03-17T11:03:54.664Z,42.50
2023-03-17T11:06:43.453Z,43.60
2023-03-17T11:09:35.121Z,42.80
2023-03-17T11:12:23.656Z,44.00
2023-03-17T11:15:20.210Z,44.50
2023-03-17T11:18:35.945Z,43.30
2023-03-17T11:21:33.959Z,42.50
2023-03-17T11:24:33.515Z,42.40
2023-03-17T11:27:47.415Z,42.40
2023-03-17T11:31:00.486Z,42.90
2023-03-17T11:33:49.861Z,42.60
2023-03-17T11:36:46.670Z,42.60
2023-03-17T11:39:39.579Z,42.50
2023-03-17T11:42:46.000Z,42.00
2023-03-17T11:45:52.538Z,42.90
2023-03-17T11:48:57.143Z,43.90
2023-03-17T11:51:56.581Z,43.00
2023-03-17T11:55:09.189Z,42.20
2023-03-17T11:58:05.597Z,40.40
2023-03-17T12:00:57.168Z,40.20
2023-03-17T12:04:04.012Z,40.60
2023-03-17T12:06:58.625Z,39.50
2023-03-17T12:10:15.636Z,39.80
2023-03-17T12:13:11.329Z,40.60
2023-03-17T12:16:04.449Z,40.60
2023-03-17T12:19:28.310Z,40.80
2023-03-17T12:22:26.198Z,40.40
2023-03-17T12:25:25.590Z,40.30
2023-03-17T12:28:19.225Z,40.40
2023-03-17T12:31:15.799Z,41.50
2023-03-17T12:34:27.128Z,42.40
2023-03-17T12:37:14.526Z,43.00
2023-03-17T12:40:10.795Z,43.20
2023-03-17T12:43:28.870Z,42.80
2023-03-17T12:46:37.993Z,42.70
2023-03-17T12:49:52.183Z,42.40
2023-03-17T12:52:44.551Z,43.10
2023-03-17T12:55:33.681Z,42.50
2023-03-17T12:58:26.539Z,42.00
2023-03-17T13:01:32.609Z,42.80
2023-03-17T13:04:37.250Z,43.00
2023-03-17T13:07:39.731Z,43.10
2023-03-17T13:10:44.513Z,42.40
2023-03-17T13:13:41.934Z,41.90
2023-03-17T13:16:37.440Z,42.80
2023-03-17T13:19:32.494Z,44.10
2023-03-17T13:22:21.664Z,43.80
2023-03-17T13:25:30.769Z,43.30
2023-03-17T13:28:25.942Z,43.40
2023-03-17T13:31:16.303Z,43.90
2023-03-17T13:34:17.796Z,45.00
2023-03-17T13:37:30.760Z,44.50
2023-03-17T13:40:46.920Z,45.00
2023-03-17T13:44:15.343Z,44.80
2023-03-17T13:47:25.340Z,45.50
2023-03-17T13:50:25.036Z,45.20
2023-03-17T13:53:14.875Z,45.50
2023-03-17T13:56:37.625Z,45.70
2023-03-17T13:59:35.988Z,45.90
2023-03-17T14:02:25.502Z,45.60
2023-03-17T14:05:38.193Z,45.40
2023-03-17T14:08:34.973Z,45.70
2023-03-17T14:11:33.056Z,45.30
2023-03-17T14:14:32.444Z,45.40
2023-03-17T14:17:34.798Z,45.60
2023-03-17T14:20:26.078Z,46.50
2023-03-17T14:23:12.079Z,46.20
2023-03-17T14:25:59.919Z,46.10
2023-03-17T14:28:48.222Z,46.10
2023-03-17T14:31:34.604Z,46.40
2023-03-17T14:34:24.638Z,46.80
2023-03-17T14:37:12.432Z,47.10
2023-03-17T14:39:59.217Z,47.60
2023-03-17T14:42:45.363Z,48.30
2023-03-17T14:45:43.918Z,48.30
2023-03-17T14:48:36.837Z,49.00
2023-03-17T14:51:37.870Z,49.90
2023-03-17T14:54:32.805Z,49.90
2023-03-17T14:57:26.188Z,50.30
2023-03-17T15:00:34.022Z,50.60
2023-03-17T15:03:22.785Z,51.20
2023-03-17T15:06:29.526Z,51.30
2023-03-17T15:09:37.901Z,51.90
2023-03-17T15:12:26.450Z,51.80
2023-03-17T15:15:26.561Z,51.90
2023-03-17T15:18:16.484Z,51.70
2023-03-17T15:21:03.672Z,51.80
2023-03-17T15:23:50.126Z,51.70
2023-03-17T15:26:37.303Z,52.80
2023-03-17T15:29:23.213Z,51.60
2023-03-17T15:32:20.140Z,52.40
2023-03-17T15:35:07.981Z,52.10
2023-03-17T15:37:54.781Z,52.20
2023-03-17T15:40:40.870Z,52.00
2023-03-17T15:43:26.940Z,51.40
2023-03-17T15:46:23.761Z,51.60
2023-03-17T15:49:13.431Z,51.30
2023-03-17T15:51:59.340Z,51.30
2023-03-17T15:54:45.381Z,51.50
2023-03-17T15:57:31.239Z,51.50
2023-03-17T16:00:19.924Z,51.00
2023-03-17T16:03:24.499Z,50.30
2023-03-17T16:06:18.843Z,50.30
2023-03-17T16:09:07.374Z,50.50
2023-03-17T16:11:53.742Z,51.00
2023-03-17T16:14:39.925Z,51.40
2023-03-17T16:17:28.997Z,50.90
2023-03-17T16:20:27.182Z,51.50
2023-03-17T16:23:13.098Z,52.10
2023-03-17T16:26:13.843Z,52.40
2023-03-17T16:29:01.318Z,52.90
2023-03-17T16:31:49.541Z,53.90
2023-03-17T16:34:35.614Z,53.70
2023-03-17T16:37:21.542Z,54.10
2023-03-17T16:40:16.771Z,54.70
2023-03-17T16:43:12.912Z,55.20
2023-03-17T16:46:04.052Z,55.60
2023-03-17T16:48:51.241Z,55.90
2023-03-17T16:51:37.379Z,56.40
2023-03-17T16:54:23.404Z,56.90
2023-03-17T16:57:12.225Z,56.90
2023-03-17T16:59:59.634Z,57.40
2023-03-17T17:02:47.937Z,57.60
2023-03-17T17:05:35.783Z,58.10
2023-03-17T17:08:22.312Z,58.10
2023-03-17T17:11:08.562Z,58.10
2023-03-17T17:13:54.766Z,58.60
2023-03-17T17:16:40.829Z,59.10
2023-03-17T17:19:26.981Z,59.30
2023-03-17T17:22:12.996Z,59.30
2023-03-17T17:24:58.927Z,59.60
2023-03-17T17:27:46.837Z,59.70
2023-03-17T17:30:33.886Z,59.80
2023-03-17T17:33:21.666Z,60.70
2023-03-17T17:36:13.435Z,60.90
2023-03-17T17:38:59.803Z,60.80
2023-03-17T17:41:45.989Z,60.90
2023-03-17T17:44:32.013Z,61.50
2023-03-17T17:47:18.402Z,61.70
2023-03-17T17:50:06.888Z,61.90
2023-03-17T17:52:53.000Z,62.40
2023-03-17T17:55:40.757Z,62.40
2023-03-17T17:58:27.084Z,62.90
2023-03-17T18:01:14.226Z,62.80
2023-03-17T18:04:00.495Z,63.00
2023-03-17T18:06:47.384Z,63.70
2023-03-17T18:09:33.566Z,63.80
2023-03-17T18:12:19.913Z,64.30
2023-03-17T18:15:06.265Z,64.20
2023-03-17T18:17:52.634Z,64.10
2023-03-17T18:20:38.663Z,64.80
2023-03-17T18:23:24.817Z,65.50
2023-03-17T18:26:10.752Z,65.90
2023-03-17T18:28:57.230Z,65.50
2023-03-17T18:31:53.680Z,65.60
2023-03-17T18:34:46.726Z,66.00
2023-03-17T18:37:32.870Z,66.60
2023-03-17T18:40:19.708Z,66.50
2023-03-17T18:43:06.018Z,67.00
2023-03-17T18:45:52.416Z,67.40
2023-03-17T18:48:38.660Z,67.40
2023-03-17T18:51:25.207Z,67.80
2023-03-17T18:54:12.068Z,67.50
2023-03-17T18:56:58.201Z,67.80
2023-03-17T18:59:44.271Z,68.30
2023-03-17T19:02:31.838Z,68.40
2023-03-17T19:05:17.850Z,68.70
2023-03-17T19:08:04.363Z,69.60
2023-03-17T19:10:50.511Z,69.70
2023-03-17T19:13:37.711Z,70.50
2023-03-17T19:16:28.792Z,70.40
2023-03-17T19:19:15.126Z,70.40
2023-03-17T19:22:01.418Z,70.90
2023-03-17T19:24:50.109Z,70.70
2023-03-17T19:27:36.366Z,70.80
2023-03-17T19:30:22.468Z,71.90
2023-03-17T19:33:08.694Z,71.80
2023-03-17T19:35:58.814Z,71.70
2023-03-17T19:38:45.789Z,71.80
2023-03-17T19:41:32.700Z,72.30
2023-03-17T19:44:19.331Z,73.00
2023-03-17T19:47:08.297Z,73.20
2023-03-17T19:49:54.240Z,73.50
2023-03-17T19:52:40.107Z,73.60
2023-03-17T19:55:27.305Z,74.10
2023-03-17T19:58:13.417Z,74.50
2023-03-17T20:00:59.659Z,75.00
2023-03-17T20:03:45.777Z,75.40
2023-03-17T20:06:31.971Z,75.00
2023-03-17T20:09:18.538Z,75.10
2023-03-17T20:12:04.869Z,75.60
2023-03-17T20:14:51.681Z,76.20
2023-03-17T20:17:37.903Z,76.40
2023-03-17T20:20:24.249Z,76.70
2023-03-17T20:23:10.158Z,76.80
2023-03-17T20:25:57.065Z,76.80
2023-03-17T20:28:43.041Z,76.60
2023-03-17T20:31:29.143Z,76.80
2023-03-17T20:34:16.276Z,76.20
2023-03-17T20:37:02.786Z,76.90
2023-03-17T20:39:49.157Z,77.20
2023-03-17T20:42:35.460Z,77.60
2023-03-17T20:45:21.886Z,77.80
2023-03-17T20:48:10.732Z,77.60
2023-03-17T20:50:58.305Z,77.40
2023-03-17T20:53:46.548Z,77.90
2023-03-17T20:56:34.127Z,78.20
2023-03-17T20:59:20.297Z,78.50
2023-03-17T21:02:07.822Z,79.60
2023-03-17T21:04:54.373Z,79.70
2023-03-17T21:07:40.951Z,79.70
2023-03-17T21:10:29.492Z,80.00
2023-03-17T21:13:17.800Z,79.70
2023-03-17T21:16:03.903Z,78.90
2023-03-17T21:18:50.173Z,78.90
2023-03-17T21:21:36.430Z,79.80
2023-03-17T21:24:28.516Z,80.30
2023-03-17T21:27:15.662Z,80.50
2023-03-17T21:30:01.660Z,80.80
2023-03-17T21:32:47.885Z,80.90
2023-03-17T21:35:35.471Z,80.80
2023-03-17T21:38:22.025Z,81.20
2023-03-17T21:41:37.842Z,81.50
2023-03-17T21:44:24.119Z,81.80
2023-03-17T21:47:10.348Z,82.50
2023-03-17T21:49:57.818Z,85.20
2023-03-17T21:52:43.864Z,86.10
2023-03-17T21:55:30.387Z,86.30
2023-03-17T21:58:16.724Z,86.20
2023-03-17T22:01:03.152Z,85.10
2023-03-17T22:03:50.280Z,85.90
2023-03-17T22:06:36.784Z,86.10
2023-03-17T22:09:22.974Z,85.70
2023-03-17T22:12:09.477Z,85.90
2023-03-17T22:14:58.844Z,84.30
2023-03-17T22:17:44.708Z,84.90
2023-03-17T22:20:31.660Z,86.00
2023-03-17T22:23:19.629Z,86.80
2023-03-17T22:26:05.871Z,86.50
2023-03-17T22:28:51.952Z,85.80
2023-03-17T22:31:38.332Z,87.40
2023-03-17T22:34:24.549Z,87.20
2023-03-17T22:37:10.793Z,87.40
2023-03-17T22:40:02.247Z,86.40
2023-03-17T22:42:48.483Z,86.30
2023-03-17T22:45:34.617Z,86.50
2023-03-17T22:48:20.574Z,90.30
2023-03-17T22:51:09.401Z,91.20
2023-03-17T22:53:55.833Z,91.90
2023-03-17T22:56:41.922Z,92.20
2023-03-17T22:59:27.726Z,91.30
2023-03-17T23:02:16.223Z,91.50
2023-03-17T23:05:03.917Z,91.80
2023-03-17T23:07:51.748Z,92.10
2023-03-17T23:10:39.803Z,91.90
2023-03-17T23:13:26.004Z,91.70
2023-03-17T23:16:13.451Z,91.60
2023-03-17T23:18:59.591Z,91.80
2023-03-17T23:21:45.512Z,91.40
2023-03-17T23:24:31.658Z,92.70
2023-03-17T23:27:17.593Z,93.50
2023-03-17T23:30:05.767Z,93.80
2023-03-17T23:32:52.328Z,93.90
2023-03-17T23:35:38.531Z,94.20
2023-03-17T23:38:25.194Z,94.60
2023-03-17T23:41:13.451Z,94.60
2023-03-17T23:43:59.547Z,94.60
2023-03-17T23:46:46.380Z,94.40
2023-03-17T23:49:32.452Z,94.40
2023-03-17T23:52:18.376Z,94.10
2023-03-17T23:55:06.687Z,93.90
2023-03-17T23:57:52.664Z,94.00
